sensor_id;sensor_type;location;lat;lon;timestamp;P1;durP1;ratioP1;P2;durP2;ratioP2
22679;SDS011;11507;44.858;10.374;2022-11-12T00:01:15;90.28;;;33.08;;
22679;SDS011;11507;44.858;10.374;2022-11-12T00:04:02;86.78;;;33.03;;
22679;SDS011;11507;44.858;10.374;2022-11-12T00:06:47;78.28;;;29.92;;
22679;SDS011;11507;44.858;10.374;2022-11-12T00:09:31;65.20;;;28.65;;
22679;SDS011;11507;44.858;10.374;2022-11-12T00:12:16;65.80;;;27.63;;
22679;SDS011;11507;44.858;10.374;2022-11-12T00:15:01;71.25;;;29.77;;
22679;SDS011;11507;44.858;10.374;2022-11-12T00:17:45;68.93;;;28.60;;
22679;SDS011;11507;44.858;10.374;2022-11-12T00:20:32;69.03;;;29.35;;
22679;SDS011;11507;44.858;10.374;2022-11-12T00:23:18;74.97;;;28.65;;
22679;SDS011;11507;44.858;10.374;2022-11-12T00:26:02;56.08;;;25.52;;
22679;SDS011;11507;44.858;10.374;2022-11-12T00:28:46;53.30;;;24.13;;
22679;SDS011;11507;44.858;10.374;2022-11-12T00:31:31;50.47;;;24.00;;
22679;SDS011;11507;44.858;10.374;2022-11-12T00:34:17;54.83;;;24.33;;
22679;SDS011;11507;44.858;10.374;2022-11-12T00:37:02;59.83;;;25.75;;
22679;SDS011;11507;44.858;10.374;2022-11-12T00:39:48;63.38;;;27.00;;
22679;SDS011;11507;44.858;10.374;2022-11-12T00:42:32;61.60;;;27.50;;
22679;SDS011;11507;44.858;10.374;2022-11-12T00:45:17;72.90;;;29.90;;
22679;SDS011;11507;44.858;10.374;2022-11-12T00:48:02;63.33;;;27.63;;
22679;SDS011;11507;44.858;10.374;2022-11-12T00:50:46;69.78;;;29.25;;
22679;SDS011;11507;44.858;10.374;2022-11-12T00:53:31;55.42;;;26.38;;
22679;SDS011;11507;44.858;10.374;2022-11-12T00:56:16;60.45;;;26.95;;
22679;SDS011;11507;44.858;10.374;2022-11-12T00:59:01;54.30;;;25.35;;
22679;SDS011;11507;44.858;10.374;2022-11-12T01:01:45;50.95;;;23.02;;
22679;SDS011;11507;44.858;10.374;2022-11-12T01:04:30;48.67;;;22.23;;
22679;SDS011;11507;44.858;10.374;2022-11-12T01:07:15;47.05;;;21.67;;
22679;SDS011;11507;44.858;10.374;2022-11-12T01:10:00;52.75;;;22.75;;
22679;SDS011;11507;44.858;10.374;2022-11-12T01:12:46;54.80;;;21.92;;
22679;SDS011;11507;44.858;10.374;2022-11-12T01:15:30;68.68;;;20.73;;
22679;SDS011;11507;44.858;10.374;2022-11-12T01:18:15;43.22;;;20.30;;
22679;SDS011;11507;44.858;10.374;2022-11-12T01:21:03;49.33;;;21.67;;
22679;SDS011;11507;44.858;10.374;2022-11-12T01:23:50;52.08;;;23.27;;
22679;SDS011;11507;44.858;10.374;2022-11-12T01:26:35;41.55;;;20.85;;
22679;SDS011;11507;44.858;10.374;2022-11-12T01:29:19;47.33;;;19.42;;
22679;SDS011;11507;44.858;10.374;2022-11-12T01:32:05;41.55;;;20.33;;
22679;SDS011;11507;44.858;10.374;2022-11-12T01:34:49;42.78;;;20.63;;
22679;SDS011;11507;44.858;10.374;2022-11-12T01:37:36;47.45;;;21.73;;
22679;SDS011;11507;44.858;10.374;2022-11-12T01:40:20;51.83;;;21.73;;
22679;SDS011;11507;44.858;10.374;2022-11-12T01:43:12;47.28;;;20.98;;
22679;SDS011;11507;44.858;10.374;2022-11-12T01:45:56;55.10;;;24.48;;
22679;SDS011;11507;44.858;10.374;2022-11-12T01:52:07;73.93;;;27.83;;
22679;SDS011;11507;44.858;10.374;2022-11-12T01:55:03;69.53;;;27.40;;
22679;SDS011;11507;44.858;10.374;2022-11-12T01:57:52;68.93;;;27.55;;
22679;SDS011;11507;44.858;10.374;2022-11-12T02:00:53;53.83;;;24.25;;
22679;SDS011;11507;44.858;10.374;2022-11-12T02:03:38;51.80;;;23.40;;
22679;SDS011;11507;44.858;10.374;2022-11-12T02:06:24;42.08;;;21.27;;
22679;SDS011;11507;44.858;10.374;2022-11-12T02:09:10;51.03;;;23.42;;
22679;SDS011;11507;44.858;10.374;2022-11-12T02:11:57;50.30;;;22.80;;
22679;SDS011;11507;44.858;10.374;2022-11-12T02:14:41;45.35;;;20.88;;
22679;SDS011;11507;44.858;10.374;2022-11-12T02:17:26;47.25;;;22.58;;
22679;SDS011;11507;44.858;10.374;2022-11-12T02:20:11;45.78;;;21.08;;
22679;SDS011;11507;44.858;10.374;2022-11-12T02:22:56;47.83;;;21.88;;
22679;SDS011;11507;44.858;10.374;2022-11-12T02:25:40;48.40;;;23.10;;
22679;SDS011;11507;44.858;10.374;2022-11-12T02:28:27;57.10;;;23.13;;
22679;SDS011;11507;44.858;10.374;2022-11-12T02:31:13;56.10;;;23.08;;
22679;SDS011;11507;44.858;10.374;2022-11-12T02:33:58;67.65;;;26.02;;
22679;SDS011;11507;44.858;10.374;2022-11-12T02:36:43;63.03;;;24.33;;
22679;SDS011;11507;44.858;10.374;2022-11-12T02:39:27;51.83;;;23.55;;
22679;SDS011;11507;44.858;10.374;2022-11-12T02:42:12;52.03;;;22.48;;
22679;SDS011;11507;44.858;10.374;2022-11-12T02:44:56;53.13;;;22.88;;
22679;SDS011;11507;44.858;10.374;2022-11-12T02:47:40;56.55;;;22.38;;
22679;SDS011;11507;44.858;10.374;2022-11-12T02:50:25;61.88;;;24.73;;
22679;SDS011;11507;44.858;10.374;2022-11-12T02:53:09;63.60;;;25.58;;
22679;SDS011;11507;44.858;10.374;2022-11-12T02:55:53;56.05;;;23.05;;
22679;SDS011;11507;44.858;10.374;2022-11-12T02:58:38;56.28;;;23.02;;
22679;SDS011;11507;44.858;10.374;2022-11-12T03:01:24;53.00;;;21.48;;
22679;SDS011;11507;44.858;10.374;2022-11-12T03:04:08;51.33;;;23.15;;
22679;SDS011;11507;44.858;10.374;2022-11-12T03:06:52;50.78;;;22.70;;
22679;SDS011;11507;44.858;10.374;2022-11-12T03:09:37;56.40;;;23.58;;
22679;SDS011;11507;44.858;10.374;2022-11-12T03:12:23;52.38;;;22.33;;
22679;SDS011;11507;44.858;10.374;2022-11-12T03:15:08;46.60;;;21.60;;
22679;SDS011;11507;44.858;10.374;2022-11-12T03:17:54;42.72;;;20.23;;
22679;SDS011;11507;44.858;10.374;2022-11-12T03:20:40;52.80;;;22.58;;
22679;SDS011;11507;44.858;10.374;2022-11-12T03:23:25;59.90;;;23.60;;
22679;SDS011;11507;44.858;10.374;2022-11-12T03:26:12;52.90;;;22.17;;
22679;SDS011;11507;44.858;10.374;2022-11-12T03:28:56;60.03;;;22.95;;
22679;SDS011;11507;44.858;10.374;2022-11-12T03:31:41;50.60;;;21.88;;
22679;SDS011;11507;44.858;10.374;2022-11-12T03:34:26;58.38;;;23.48;;
22679;SDS011;11507;44.858;10.374;2022-11-12T03:37:10;51.67;;;22.13;;
22679;SDS011;11507;44.858;10.374;2022-11-12T03:39:55;58.63;;;23.00;;
22679;SDS011;11507;44.858;10.374;2022-11-12T03:42:49;58.03;;;23.45;;
22679;SDS011;11507;44.858;10.374;2022-11-12T03:45:34;58.83;;;23.52;;
22679;SDS011;11507;44.858;10.374;2022-11-12T03:48:19;63.33;;;23.00;;
22679;SDS011;11507;44.858;10.374;2022-11-12T03:51:04;58.22;;;22.80;;
22679;SDS011;11507;44.858;10.374;2022-11-12T03:53:49;57.08;;;22.90;;
22679;SDS011;11507;44.858;10.374;2022-11-12T03:56:33;53.30;;;22.38;;
22679;SDS011;11507;44.858;10.374;2022-11-12T03:59:18;55.72;;;24.13;;
22679;SDS011;11507;44.858;10.374;2022-11-12T04:02:03;50.85;;;22.73;;
22679;SDS011;11507;44.858;10.374;2022-11-12T04:04:48;45.13;;;20.60;;
22679;SDS011;11507;44.858;10.374;2022-11-12T04:08:05;46.05;;;20.60;;
22679;SDS011;11507;44.858;10.374;2022-11-12T04:11:12;45.22;;;20.55;;
22679;SDS011;11507;44.858;10.374;2022-11-12T04:13:58;42.92;;;20.38;;
22679;SDS011;11507;44.858;10.374;2022-11-12T04:16:43;45.45;;;20.50;;
22679;SDS011;11507;44.858;10.374;2022-11-12T04:19:47;38.67;;;19.55;;
22679;SDS011;11507;44.858;10.374;2022-11-12T04:22:50;40.25;;;18.95;;
22679;SDS011;11507;44.858;10.374;2022-11-12T04:25:34;46.78;;;20.45;;
22679;SDS011;11507;44.858;10.374;2022-11-12T04:28:38;37.55;;;18.48;;
22679;SDS011;11507;44.858;10.374;2022-11-12T04:31:23;38.53;;;17.90;;
22679;SDS011;11507;44.858;10.374;2022-11-12T04:34:07;36.35;;;17.52;;
22679;SDS011;11507;44.858;10.374;2022-11-12T04:37:11;34.90;;;16.92;;
22679;SDS011;11507;44.858;10.374;2022-11-12T04:39:55;36.58;;;18.45;;
22679;SDS011;11507;44.858;10.374;2022-11-12T04:42:59;33.25;;;17.20;;
22679;SDS011;11507;44.858;10.374;2022-11-12T04:46:03;32.60;;;16.02;;
22679;SDS011;11507;44.858;10.374;2022-11-12T04:48:48;33.30;;;15.63;;
22679;SDS011;11507;44.858;10.374;2022-11-12T04:51:32;30.30;;;15.75;;
22679;SDS011;11507;44.858;10.374;2022-11-12T04:54:35;32.03;;;15.60;;
22679;SDS011;11507;44.858;10.374;2022-11-12T04:57:20;31.08;;;15.82;;
22679;SDS011;11507;44.858;10.374;2022-11-12T05:00:05;31.55;;;15.23;;
22679;SDS011;11507;44.858;10.374;2022-11-12T05:02:50;34.92;;;16.02;;
22679;SDS011;11507;44.858;10.374;2022-11-12T05:05:34;24.90;;;12.95;;
22679;SDS011;11507;44.858;10.374;2022-11-12T05:08:18;28.17;;;14.60;;
22679;SDS011;11507;44.858;10.374;2022-11-12T05:11:03;28.77;;;14.23;;
22679;SDS011;11507;44.858;10.374;2022-11-12T05:13:48;27.02;;;14.75;;
22679;SDS011;11507;44.858;10.374;2022-11-12T05:16:32;26.02;;;13.57;;
22679;SDS011;11507;44.858;10.374;2022-11-12T05:19:17;25.02;;;13.77;;
22679;SDS011;11507;44.858;10.374;2022-11-12T05:22:02;26.52;;;13.82;;
22679;SDS011;11507;44.858;10.374;2022-11-12T05:24:49;29.98;;;14.75;;
22679;SDS011;11507;44.858;10.374;2022-11-12T05:27:33;24.60;;;12.93;;
22679;SDS011;11507;44.858;10.374;2022-11-12T05:30:18;24.65;;;12.27;;
22679;SDS011;11507;44.858;10.374;2022-11-12T05:33:02;26.15;;;13.57;;
22679;SDS011;11507;44.858;10.374;2022-11-12T05:35:47;24.25;;;13.02;;
22679;SDS011;11507;44.858;10.374;2022-11-12T05:38:31;23.23;;;12.90;;
22679;SDS011;11507;44.858;10.374;2022-11-12T05:41:15;24.23;;;12.30;;
22679;SDS011;11507;44.858;10.374;2022-11-12T05:44:00;28.00;;;13.60;;
22679;SDS011;11507;44.858;10.374;2022-11-12T05:46:45;25.25;;;12.05;;
22679;SDS011;11507;44.858;10.374;2022-11-12T05:49:30;23.33;;;13.30;;
22679;SDS011;11507;44.858;10.374;2022-11-12T05:52:14;25.02;;;14.10;;
22679;SDS011;11507;44.858;10.374;2022-11-12T05:55:00;28.92;;;15.48;;
22679;SDS011;11507;44.858;10.374;2022-11-12T05:57:44;28.45;;;15.82;;
22679;SDS011;11507;44.858;10.374;2022-11-12T06:00:28;25.48;;;13.05;;
22679;SDS011;11507;44.858;10.374;2022-11-12T06:03:14;23.38;;;13.20;;
22679;SDS011;11507;44.858;10.374;2022-11-12T06:05:59;26.83;;;13.98;;
22679;SDS011;11507;44.858;10.374;2022-11-12T06:08:44;26.83;;;13.95;;
22679;SDS011;11507;44.858;10.374;2022-11-12T06:11:28;29.65;;;15.25;;
22679;SDS011;11507;44.858;10.374;2022-11-12T06:14:12;28.98;;;15.10;;
22679;SDS011;11507;44.858;10.374;2022-11-12T06:16:58;22.45;;;12.13;;
22679;SDS011;11507;44.858;10.374;2022-11-12T06:19:43;25.20;;;14.02;;
22679;SDS011;11507;44.858;10.374;2022-11-12T06:22:30;27.98;;;14.05;;
22679;SDS011;11507;44.858;10.374;2022-11-12T06:25:14;28.45;;;13.80;;
22679;SDS011;11507;44.858;10.374;2022-11-12T06:27:59;26.67;;;13.00;;
22679;SDS011;11507;44.858;10.374;2022-11-12T06:30:45;26.02;;;13.23;;
22679;SDS011;11507;44.858;10.374;2022-11-12T06:33:31;28.23;;;13.02;;
22679;SDS011;11507;44.858;10.374;2022-11-12T06:36:17;37.45;;;16.85;;
22679;SDS011;11507;44.858;10.374;2022-11-12T06:39:03;36.28;;;18.35;;
22679;SDS011;11507;44.858;10.374;2022-11-12T06:41:49;33.67;;;16.90;;
22679;SDS011;11507;44.858;10.374;2022-11-12T06:44:35;32.45;;;15.73;;
22679;SDS011;11507;44.858;10.374;2022-11-12T06:47:21;29.55;;;15.30;;
22679;SDS011;11507;44.858;10.374;2022-11-12T06:50:06;28.95;;;16.13;;
22679;SDS011;11507;44.858;10.374;2022-11-12T06:52:51;34.50;;;17.08;;
22679;SDS011;11507;44.858;10.374;2022-11-12T06:55:41;35.35;;;16.33;;
22679;SDS011;11507;44.858;10.374;2022-11-12T06:58:25;35.10;;;17.10;;
22679;SDS011;11507;44.858;10.374;2022-11-12T07:01:11;29.55;;;16.10;;
22679;SDS011;11507;44.858;10.374;2022-11-12T07:06:42;31.40;;;16.15;;
22679;SDS011;11507;44.858;10.374;2022-11-12T07:09:26;29.60;;;16.90;;
22679;SDS011;11507;44.858;10.374;2022-11-12T07:12:10;29.67;;;15.23;;
22679;SDS011;11507;44.858;10.374;2022-11-12T07:14:55;29.15;;;15.43;;
22679;SDS011;11507;44.858;10.374;2022-11-12T07:17:39;30.17;;;14.80;;
22679;SDS011;11507;44.858;10.374;2022-11-12T07:20:29;32.42;;;14.57;;
22679;SDS011;11507;44.858;10.374;2022-11-12T07:23:14;27.48;;;14.02;;
22679;SDS011;11507;44.858;10.374;2022-11-12T07:26:03;28.92;;;14.35;;
22679;SDS011;11507;44.858;10.374;2022-11-12T07:28:50;24.13;;;12.90;;
22679;SDS011;11507;44.858;10.374;2022-11-12T07:31:35;25.10;;;13.40;;
22679;SDS011;11507;44.858;10.374;2022-11-12T07:34:19;27.30;;;14.10;;
22679;SDS011;11507;44.858;10.374;2022-11-12T07:37:03;23.25;;;13.65;;
22679;SDS011;11507;44.858;10.374;2022-11-12T07:39:48;25.25;;;14.30;;
22679;SDS011;11507;44.858;10.374;2022-11-12T07:42:34;25.13;;;13.85;;
22679;SDS011;11507;44.858;10.374;2022-11-12T07:45:19;24.75;;;13.65;;
22679;SDS011;11507;44.858;10.374;2022-11-12T07:48:05;22.75;;;12.35;;
22679;SDS011;11507;44.858;10.374;2022-11-12T07:50:49;25.15;;;13.35;;
22679;SDS011;11507;44.858;10.374;2022-11-12T07:53:34;21.40;;;13.30;;
22679;SDS011;11507;44.858;10.374;2022-11-12T07:56:20;22.55;;;13.18;;
22679;SDS011;11507;44.858;10.374;2022-11-12T08:01:52;22.33;;;12.05;;
22679;SDS011;11507;44.858;10.374;2022-11-12T08:04:39;20.35;;;11.95;;
22679;SDS011;11507;44.858;10.374;2022-11-12T08:07:24;17.63;;;11.07;;
22679;SDS011;11507;44.858;10.374;2022-11-12T08:10:09;17.50;;;10.65;;
22679;SDS011;11507;44.858;10.374;2022-11-12T08:12:54;17.88;;;11.20;;
22679;SDS011;11507;44.858;10.374;2022-11-12T08:15:40;18.63;;;11.70;;
22679;SDS011;11507;44.858;10.374;2022-11-12T08:18:26;19.80;;;12.35;;
22679;SDS011;11507;44.858;10.374;2022-11-12T08:23:59;18.05;;;11.73;;
22679;SDS011;11507;44.858;10.374;2022-11-12T08:26:43;18.60;;;10.82;;
22679;SDS011;11507;44.858;10.374;2022-11-12T08:29:28;14.38;;;9.77;;
22679;SDS011;11507;44.858;10.374;2022-11-12T08:32:13;13.35;;;9.18;;
22679;SDS011;11507;44.858;10.374;2022-11-12T08:34:58;15.40;;;10.00;;
22679;SDS011;11507;44.858;10.374;2022-11-12T08:37:43;14.43;;;10.00;;
22679;SDS011;11507;44.858;10.374;2022-11-12T08:40:28;14.57;;;9.68;;
22679;SDS011;11507;44.858;10.374;2022-11-12T08:43:17;15.45;;;9.68;;
22679;SDS011;11507;44.858;10.374;2022-11-12T08:46:02;14.38;;;9.40;;
22679;SDS011;11507;44.858;10.374;2022-11-12T08:48:47;13.98;;;9.55;;
22679;SDS011;11507;44.858;10.374;2022-11-12T08:51:33;14.15;;;9.77;;
22679;SDS011;11507;44.858;10.374;2022-11-12T08:54:19;17.95;;;10.48;;
22679;SDS011;11507;44.858;10.374;2022-11-12T08:57:03;14.50;;;10.50;;
22679;SDS011;11507;44.858;10.374;2022-11-12T08:59:49;14.55;;;9.95;;
22679;SDS011;11507;44.858;10.374;2022-11-12T09:02:33;16.23;;;9.77;;
22679;SDS011;11507;44.858;10.374;2022-11-12T09:05:19;15.27;;;9.80;;
22679;SDS011;11507;44.858;10.374;2022-11-12T09:08:08;14.45;;;9.45;;
22679;SDS011;11507;44.858;10.374;2022-11-12T09:10:56;15.77;;;9.38;;
22679;SDS011;11507;44.858;10.374;2022-11-12T09:13:41;12.68;;;8.80;;
22679;SDS011;11507;44.858;10.374;2022-11-12T09:16:25;15.10;;;8.90;;
22679;SDS011;11507;44.858;10.374;2022-11-12T09:19:10;13.57;;;9.30;;
22679;SDS011;11507;44.858;10.374;2022-11-12T09:21:56;14.98;;;9.13;;
22679;SDS011;11507;44.858;10.374;2022-11-12T09:24:41;14.88;;;9.48;;
22679;SDS011;11507;44.858;10.374;2022-11-12T09:27:26;15.30;;;9.52;;
22679;SDS011;11507;44.858;10.374;2022-11-12T09:30:11;15.10;;;8.77;;
22679;SDS011;11507;44.858;10.374;2022-11-12T09:32:57;16.90;;;9.35;;
22679;SDS011;11507;44.858;10.374;2022-11-12T09:35:41;14.07;;;8.75;;
22679;SDS011;11507;44.858;10.374;2022-11-12T09:38:26;11.32;;;8.30;;
22679;SDS011;11507;44.858;10.374;2022-11-12T09:41:18;12.45;;;8.07;;
22679;SDS011;11507;44.858;10.374;2022-11-12T09:44:13;13.27;;;8.63;;
22679;SDS011;11507;44.858;10.374;2022-11-12T09:47:03;11.38;;;8.35;;
22679;SDS011;11507;44.858;10.374;2022-11-12T09:49:57;11.65;;;7.85;;
22679;SDS011;11507;44.858;10.374;2022-11-12T09:53:31;12.82;;;8.63;;
22679;SDS011;11507;44.858;10.374;2022-11-12T09:56:30;12.52;;;8.45;;
22679;SDS011;11507;44.858;10.374;2022-11-12T09:59:14;12.52;;;8.20;;
22679;SDS011;11507;44.858;10.374;2022-11-12T10:02:18;11.00;;;7.75;;
22679;SDS011;11507;44.858;10.374;2022-11-12T10:14:57;14.50;;;8.93;;
22679;SDS011;11507;44.858;10.374;2022-11-12T10:18:12;13.98;;;9.20;;
22679;SDS011;11507;44.858;10.374;2022-11-12T10:21:13;15.13;;;9.23;;
22679;SDS011;11507;44.858;10.374;2022-11-12T10:24:20;13.25;;;9.00;;
22679;SDS011;11507;44.858;10.374;2022-11-12T10:27:20;16.98;;;9.52;;
22679;SDS011;11507;44.858;10.374;2022-11-12T10:30:16;15.25;;;9.98;;
22679;SDS011;11507;44.858;10.374;2022-11-12T10:33:09;16.48;;;10.07;;
22679;SDS011;11507;44.858;10.374;2022-11-12T10:36:01;16.48;;;10.27;;
22679;SDS011;11507;44.858;10.374;2022-11-12T10:39:07;17.70;;;10.88;;
22679;SDS011;11507;44.858;10.374;2022-11-12T10:42:04;17.40;;;11.10;;
22679;SDS011;11507;44.858;10.374;2022-11-12T10:45:10;17.00;;;11.20;;
22679;SDS011;11507;44.858;10.374;2022-11-12T10:48:04;19.17;;;13.50;;
22679;SDS011;11507;44.858;10.374;2022-11-12T10:51:03;18.98;;;13.07;;
22679;SDS011;11507;44.858;10.374;2022-11-12T10:54:20;21.65;;;14.25;;
22679;SDS011;11507;44.858;10.374;2022-11-12T10:57:22;21.23;;;12.75;;
22679;SDS011;11507;44.858;10.374;2022-11-12T11:03:23;24.25;;;14.00;;
22679;SDS011;11507;44.858;10.374;2022-11-12T11:14:41;25.42;;;15.82;;
22679;SDS011;11507;44.858;10.374;2022-11-12T11:17:27;28.50;;;17.77;;
22679;SDS011;11507;44.858;10.374;2022-11-12T11:23:21;46.13;;;26.33;;
22679;SDS011;11507;44.858;10.374;2022-11-12T11:26:28;39.47;;;25.00;;
22679;SDS011;11507;44.858;10.374;2022-11-12T11:49:26;47.40;;;27.60;;
22679;SDS011;11507;44.858;10.374;2022-11-12T12:11:01;55.97;;;31.73;;
22679;SDS011;11507;44.858;10.374;2022-11-12T12:19:49;53.05;;;30.80;;
22679;SDS011;11507;44.858;10.374;2022-11-12T12:22:44;55.63;;;32.75;;
22679;SDS011;11507;44.858;10.374;2022-11-12T12:25:37;51.25;;;31.95;;
22679;SDS011;11507;44.858;10.374;2022-11-12T12:31:55;55.85;;;33.67;;
22679;SDS011;11507;44.858;10.374;2022-11-12T12:35:21;57.15;;;34.53;;
22679;SDS011;11507;44.858;10.374;2022-11-12T12:41:50;62.67;;;36.85;;
22679;SDS011;11507;44.858;10.374;2022-11-12T12:44:46;63.10;;;37.13;;
22679;SDS011;11507;44.858;10.374;2022-11-12T12:47:43;62.67;;;38.75;;
22679;SDS011;11507;44.858;10.374;2022-11-12T12:50:29;71.00;;;39.88;;
22679;SDS011;11507;44.858;10.374;2022-11-12T12:53:15;64.53;;;38.75;;
22679;SDS011;11507;44.858;10.374;2022-11-12T12:56:45;60.60;;;37.13;;
22679;SDS011;11507;44.858;10.374;2022-11-12T12:59:17;68.60;;;37.63;;
22679;SDS011;11507;44.858;10.374;2022-11-12T13:02:13;68.72;;;38.47;;
22679;SDS011;11507;44.858;10.374;2022-11-12T13:05:04;63.85;;;36.60;;
22679;SDS011;11507;44.858;10.374;2022-11-12T13:07:49;65.45;;;37.35;;
22679;SDS011;11507;44.858;10.374;2022-11-12T13:13:26;61.75;;;36.65;;
22679;SDS011;11507;44.858;10.374;2022-11-12T13:22:47;61.47;;;36.70;;
22679;SDS011;11507;44.858;10.374;2022-11-12T13:25:33;60.40;;;35.55;;
22679;SDS011;11507;44.858;10.374;2022-11-12T13:28:18;64.07;;;36.50;;
22679;SDS011;11507;44.858;10.374;2022-11-12T13:31:03;66.30;;;36.83;;
22679;SDS011;11507;44.858;10.374;2022-11-12T13:34:30;62.38;;;35.78;;
22679;SDS011;11507;44.858;10.374;2022-11-12T13:37:19;62.78;;;35.78;;
22679;SDS011;11507;44.858;10.374;2022-11-12T13:40:11;63.33;;;37.17;;
22679;SDS011;11507;44.858;10.374;2022-11-12T13:51:56;60.42;;;35.65;;
22679;SDS011;11507;44.858;10.374;2022-11-12T13:54:41;59.70;;;34.95;;
22679;SDS011;11507;44.858;10.374;2022-11-12T13:57:27;58.33;;;34.97;;
22679;SDS011;11507;44.858;10.374;2022-11-12T14:03:05;59.95;;;36.65;;
22679;SDS011;11507;44.858;10.374;2022-11-12T14:05:52;62.40;;;36.72;;
22679;SDS011;11507;44.858;10.374;2022-11-12T14:23:21;63.15;;;35.83;;
22679;SDS011;11507;44.858;10.374;2022-11-12T14:26:08;59.05;;;34.75;;
22679;SDS011;11507;44.858;10.374;2022-11-12T14:28:55;62.15;;;36.10;;
22679;SDS011;11507;44.858;10.374;2022-11-12T14:31:40;63.88;;;36.38;;
22679;SDS011;11507;44.858;10.374;2022-11-12T14:34:30;57.92;;;35.45;;
22679;SDS011;11507;44.858;10.374;2022-11-12T14:37:37;61.75;;;35.88;;
22679;SDS011;11507;44.858;10.374;2022-11-12T14:40:22;59.97;;;36.05;;
22679;SDS011;11507;44.858;10.374;2022-11-12T14:43:43;67.53;;;37.05;;
22679;SDS011;11507;44.858;10.374;2022-11-12T14:46:50;62.05;;;35.85;;
22679;SDS011;11507;44.858;10.374;2022-11-12T14:49:39;62.75;;;36.45;;
22679;SDS011;11507;44.858;10.374;2022-11-12T14:52:31;66.88;;;38.70;;
22679;SDS011;11507;44.858;10.374;2022-11-12T14:55:21;65.25;;;36.67;;
22679;SDS011;11507;44.858;10.374;2022-11-12T14:58:15;67.13;;;38.97;;
22679;SDS011;11507;44.858;10.374;2022-11-12T15:07:04;63.85;;;37.72;;
22679;SDS011;11507;44.858;10.374;2022-11-12T15:09:49;62.25;;;35.83;;
22679;SDS011;11507;44.858;10.374;2022-11-12T15:12:36;59.60;;;34.83;;
22679;SDS011;11507;44.858;10.374;2022-11-12T15:15:20;60.63;;;34.63;;
22679;SDS011;11507;44.858;10.374;2022-11-12T15:18:14;60.95;;;37.20;;
22679;SDS011;11507;44.858;10.374;2022-11-12T15:27:46;59.15;;;33.88;;
22679;SDS011;11507;44.858;10.374;2022-11-12T15:30:28;63.85;;;35.33;;
22679;SDS011;11507;44.858;10.374;2022-11-12T15:33:16;64.72;;;36.40;;
22679;SDS011;11507;44.858;10.374;2022-11-12T15:36:04;64.03;;;37.20;;
22679;SDS011;11507;44.858;10.374;2022-11-12T15:38:56;63.08;;;35.85;;
22679;SDS011;11507;44.858;10.374;2022-11-12T15:41:42;62.35;;;35.70;;
22679;SDS011;11507;44.858;10.374;2022-11-12T15:44:31;61.17;;;35.22;;
22679;SDS011;11507;44.858;10.374;2022-11-12T15:47:20;68.07;;;37.78;;
22679;SDS011;11507;44.858;10.374;2022-11-12T15:52:56;59.78;;;35.10;;
22679;SDS011;11507;44.858;10.374;2022-11-12T15:55:40;63.83;;;35.78;;
22679;SDS011;11507;44.858;10.374;2022-11-12T15:58:29;68.73;;;37.90;;
22679;SDS011;11507;44.858;10.374;2022-11-12T16:01:17;67.47;;;37.95;;
22679;SDS011;11507;44.858;10.374;2022-11-12T16:04:02;73.97;;;40.10;;
22679;SDS011;11507;44.858;10.374;2022-11-12T16:06:46;76.55;;;39.50;;
22679;SDS011;11507;44.858;10.374;2022-11-12T16:09:32;74.07;;;40.10;;
22679;SDS011;11507;44.858;10.374;2022-11-12T16:12:19;72.40;;;38.70;;
22679;SDS011;11507;44.858;10.374;2022-11-12T16:15:07;65.90;;;37.75;;
22679;SDS011;11507;44.858;10.374;2022-11-12T16:18:00;77.97;;;39.65;;
22679;SDS011;11507;44.858;10.374;2022-11-12T16:20:44;75.28;;;40.70;;
22679;SDS011;11507;44.858;10.374;2022-11-12T16:23:29;75.25;;;39.70;;
22679;SDS011;11507;44.858;10.374;2022-11-12T16:26:17;72.88;;;41.22;;
22679;SDS011;11507;44.858;10.374;2022-11-12T16:29:11;73.88;;;40.65;;
22679;SDS011;11507;44.858;10.374;2022-11-12T16:31:56;78.85;;;42.40;;
22679;SDS011;11507;44.858;10.374;2022-11-12T16:34:40;74.43;;;41.83;;
22679;SDS011;11507;44.858;10.374;2022-11-12T16:37:25;83.53;;;42.72;;
22679;SDS011;11507;44.858;10.374;2022-11-12T16:40:11;79.65;;;42.47;;
22679;SDS011;11507;44.858;10.374;2022-11-12T16:42:58;82.05;;;43.88;;
22679;SDS011;11507;44.858;10.374;2022-11-12T16:45:42;77.82;;;42.15;;
22679;SDS011;11507;44.858;10.374;2022-11-12T16:48:27;75.50;;;38.90;;
22679;SDS011;11507;44.858;10.374;2022-11-12T16:51:17;85.82;;;43.85;;
22679;SDS011;11507;44.858;10.374;2022-11-12T16:54:03;85.20;;;41.92;;
22679;SDS011;11507;44.858;10.374;2022-11-12T16:56:48;70.70;;;38.10;;
22679;SDS011;11507;44.858;10.374;2022-11-12T16:59:32;74.03;;;37.10;;
22679;SDS011;11507;44.858;10.374;2022-11-12T17:02:16;405.17;;;42.28;;
22679;SDS011;11507;44.858;10.374;2022-11-12T17:05:02;152.07;;;29.75;;
22679;SDS011;11507;44.858;10.374;2022-11-12T17:07:55;62.63;;;30.77;;
22679;SDS011;11507;44.858;10.374;2022-11-12T17:10:41;70.07;;;37.38;;
22679;SDS011;11507;44.858;10.374;2022-11-12T17:13:31;96.30;;;44.80;;
22679;SDS011;11507;44.858;10.374;2022-11-12T17:16:21;131.35;;;40.03;;
22679;SDS011;11507;44.858;10.374;2022-11-12T17:19:13;98.70;;;43.72;;
22679;SDS011;11507;44.858;10.374;2022-11-12T17:22:00;108.80;;;48.10;;
22679;SDS011;11507;44.858;10.374;2022-11-12T17:24:45;129.93;;;49.97;;
22679;SDS011;11507;44.858;10.374;2022-11-12T17:27:29;403.15;;;43.88;;
22679;SDS011;11507;44.858;10.374;2022-11-12T17:30:15;68.22;;;37.78;;
22679;SDS011;11507;44.858;10.374;2022-11-12T17:32:59;99.40;;;44.97;;
22679;SDS011;11507;44.858;10.374;2022-11-12T17:35:44;89.45;;;42.92;;
22679;SDS011;11507;44.858;10.374;2022-11-12T17:38:28;108.75;;;50.30;;
22679;SDS011;11507;44.858;10.374;2022-11-12T17:41:13;112.53;;;48.95;;
22679;SDS011;11507;44.858;10.374;2022-11-12T17:43:58;83.95;;;41.40;;
22679;SDS011;11507;44.858;10.374;2022-11-12T17:46:44;97.13;;;47.38;;
22679;SDS011;11507;44.858;10.374;2022-11-12T17:49:29;91.32;;;44.33;;
22679;SDS011;11507;44.858;10.374;2022-11-12T17:52:14;87.97;;;45.75;;
22679;SDS011;11507;44.858;10.374;2022-11-12T17:54:58;84.35;;;44.70;;
22679;SDS011;11507;44.858;10.374;2022-11-12T17:57:44;97.97;;;48.92;;
22679;SDS011;11507;44.858;10.374;2022-11-12T18:00:33;95.95;;;48.28;;
22679;SDS011;11507;44.858;10.374;2022-11-12T18:03:19;82.03;;;41.23;;
22679;SDS011;11507;44.858;10.374;2022-11-12T18:06:05;63.28;;;35.17;;
22679;SDS011;11507;44.858;10.374;2022-11-12T18:08:53;62.13;;;33.35;;
22679;SDS011;11507;44.858;10.374;2022-11-12T18:11:48;70.82;;;36.15;;
22679;SDS011;11507;44.858;10.374;2022-11-12T18:14:36;75.57;;;38.45;;
22679;SDS011;11507;44.858;10.374;2022-11-12T18:17:21;74.55;;;37.97;;
22679;SDS011;11507;44.858;10.374;2022-11-12T18:20:06;65.63;;;35.78;;
22679;SDS011;11507;44.858;10.374;2022-11-12T18:22:50;64.95;;;33.10;;
22679;SDS011;11507;44.858;10.374;2022-11-12T18:25:35;57.75;;;32.83;;
22679;SDS011;11507;44.858;10.374;2022-11-12T18:28:20;56.42;;;31.85;;
22679;SDS011;11507;44.858;10.374;2022-11-12T18:31:05;68.00;;;35.10;;